General Aviation Weather

Text Reports

Enter one or more of the following location identifiers separated by a space:

Zip Code, Four-Character ICAO or Three-Character IATA airport codes.

METAR - Aviation Routine Weather Report
LGAV - Athens Eleftherios,
Updated at 7:50 PM GMT on December 10, 2016 (9:50 PM EET):
METAR LGAV 101950Z 27003KT 9999 FEW025 07/02 Q1024 NOSIG
TAF - Terminal Area Forecast
LGAV - Athens Eleftherios,
Updated at 7:50 PM GMT on December 10, 2016 (9:50 PM EET):
No TAF is currently available for this location.
Decoded:
No decoded TAF is available.
PIREP - Pilot Weather Report
LGAV - Athens Eleftherios,
Updated at 7:50 PM GMT on December 10, 2016 (9:50 PM EET):
No PIREP is currently available for this location.
AIRMET - Airmens Meteorological Information
LGAV - Athens Eleftherios,
Updated at 7:50 PM GMT on December 10, 2016 (9:50 PM EET):
No AIRMET is currently available for this location.
SIGMET - Significant Meteorological Information
LGAV - Athens Eleftherios,
Updated at 7:50 PM GMT on December 10, 2016 (9:50 PM EET):
No SIGMET is currently available for this location.
NOTAM - Notice to Airmen
LGAV - Athens Eleftherios,
Updated at 7:50 PM GMT on December 10, 2016 (9:50 PM EET):
No NOTAM is currently available for this location.
Forecast Area
LGAV - Athens Eleftherios,
Updated at 7:50 PM GMT on December 10, 2016 (9:50 PM EET):
No NOTAM is currently available for this location.
Aviation Weather Maps